<?xml version="1.0" encoding="UTF-8" standalone="no" ?>
<gpx xmlns="http://www.topografix.com/GPX/1/1" xmlns:xsi="http://www.w3.org/2001/XMLSchema-instance" xsi:schemaLocation="http://www.topografix.com/GPX/1/1 http://www.topografix.com/GPX/1/1/gpx.xsd" version="1.1" creator="VisuGPX - https://www.visugpx.com">
  <metadata>
    <name>13799602-PAT LETRA2</name>
  </metadata>
  <trk>
    <name><![CDATA[13799602-PAT LETRA2]]></name>
    <trkseg>
      <trkpt lat="45.95894" lon="4.51903">
        <ele>288</ele>
        <time>2021-12-28T14:22:58Z</time>
      </trkpt>
      <trkpt lat="45.95915" lon="4.51872">
        <ele>288</ele>
        <time>2021-12-28T14:23:38Z</time>
      </trkpt>
      <trkpt lat="45.95972" lon="4.51802">
        <ele>291</ele>
        <time>2021-12-28T14:25:18Z</time>
      </trkpt>
      <trkpt lat="45.96036" lon="4.5174">
        <ele>291</ele>
        <time>2021-12-28T14:27:01Z</time>
      </trkpt>
      <trkpt lat="45.96112" lon="4.51679">
        <ele>292</ele>
        <time>2021-12-28T14:28:57Z</time>
      </trkpt>
      <trkpt lat="45.96121" lon="4.51666">
        <ele>291</ele>
        <time>2021-12-28T14:29:14Z</time>
      </trkpt>
      <trkpt lat="45.96123" lon="4.51683">
        <ele>293</ele>
        <time>2021-12-28T14:29:30Z</time>
      </trkpt>
      <trkpt lat="45.9612" lon="4.51714">
        <ele>296</ele>
        <time>2021-12-28T14:29:59Z</time>
      </trkpt>
      <trkpt lat="45.96099" lon="4.5177">
        <ele>299</ele>
        <time>2021-12-28T14:30:58Z</time>
      </trkpt>
      <trkpt lat="45.9606" lon="4.51838">
        <ele>302</ele>
        <time>2021-12-28T14:32:20Z</time>
      </trkpt>
      <trkpt lat="45.96044" lon="4.51958">
        <ele>311</ele>
        <time>2021-12-28T14:34:13Z</time>
      </trkpt>
      <trkpt lat="45.96044" lon="4.51986">
        <ele>313</ele>
        <time>2021-12-28T14:34:39Z</time>
      </trkpt>
      <trkpt lat="45.96051" lon="4.52016">
        <ele>316</ele>
        <time>2021-12-28T14:35:09Z</time>
      </trkpt>
      <trkpt lat="45.96042" lon="4.5203">
        <ele>314</ele>
        <time>2021-12-28T14:35:26Z</time>
      </trkpt>
      <trkpt lat="45.96035" lon="4.52057">
        <ele>313</ele>
        <time>2021-12-28T14:35:53Z</time>
      </trkpt>
      <trkpt lat="45.96029" lon="4.52093">
        <ele>312</ele>
        <time>2021-12-28T14:36:28Z</time>
      </trkpt>
      <trkpt lat="45.96028" lon="4.52133">
        <ele>311</ele>
        <time>2021-12-28T14:37:05Z</time>
      </trkpt>
      <trkpt lat="45.96036" lon="4.52194">
        <ele>311</ele>
        <time>2021-12-28T14:38:02Z</time>
      </trkpt>
      <trkpt lat="45.96048" lon="4.52313">
        <ele>314</ele>
        <time>2021-12-28T14:39:54Z</time>
      </trkpt>
      <trkpt lat="45.9607" lon="4.52498">
        <ele>325</ele>
        <time>2021-12-28T14:42:48Z</time>
      </trkpt>
      <trkpt lat="45.96099" lon="4.5249">
        <ele>329</ele>
        <time>2021-12-28T14:43:27Z</time>
      </trkpt>
      <trkpt lat="45.96102" lon="4.52517">
        <ele>330</ele>
        <time>2021-12-28T14:43:53Z</time>
      </trkpt>
      <trkpt lat="45.96109" lon="4.52538">
        <ele>331</ele>
        <time>2021-12-28T14:44:14Z</time>
      </trkpt>
      <trkpt lat="45.96108" lon="4.52592">
        <ele>330</ele>
        <time>2021-12-28T14:45:04Z</time>
      </trkpt>
      <trkpt lat="45.96099" lon="4.52617">
        <ele>329</ele>
        <time>2021-12-28T14:45:31Z</time>
      </trkpt>
      <trkpt lat="45.96088" lon="4.52621">
        <ele>327</ele>
        <time>2021-12-28T14:45:46Z</time>
      </trkpt>
      <trkpt lat="45.96078" lon="4.52619">
        <ele>326</ele>
        <time>2021-12-28T14:45:59Z</time>
      </trkpt>
      <trkpt lat="45.96042" lon="4.52642">
        <ele>321</ele>
        <time>2021-12-28T14:46:52Z</time>
      </trkpt>
      <trkpt lat="45.96032" lon="4.52665">
        <ele>319</ele>
        <time>2021-12-28T14:47:17Z</time>
      </trkpt>
      <trkpt lat="45.96008" lon="4.52632">
        <ele>316</ele>
        <time>2021-12-28T14:48:01Z</time>
      </trkpt>
      <trkpt lat="45.96003" lon="4.52648">
        <ele>315</ele>
        <time>2021-12-28T14:48:17Z</time>
      </trkpt>
      <trkpt lat="45.96005" lon="4.52665">
        <ele>316</ele>
        <time>2021-12-28T14:48:33Z</time>
      </trkpt>
      <trkpt lat="45.9601" lon="4.52689">
        <ele>317</ele>
        <time>2021-12-28T14:48:57Z</time>
      </trkpt>
      <trkpt lat="45.96023" lon="4.52717">
        <ele>319</ele>
        <time>2021-12-28T14:49:28Z</time>
      </trkpt>
      <trkpt lat="45.96028" lon="4.52731">
        <ele>320</ele>
        <time>2021-12-28T14:49:43Z</time>
      </trkpt>
      <trkpt lat="45.96029" lon="4.52747">
        <ele>320</ele>
        <time>2021-12-28T14:49:57Z</time>
      </trkpt>
      <trkpt lat="45.96024" lon="4.52759">
        <ele>321</ele>
        <time>2021-12-28T14:50:10Z</time>
      </trkpt>
      <trkpt lat="45.96011" lon="4.52762">
        <ele>322</ele>
        <time>2021-12-28T14:50:28Z</time>
      </trkpt>
      <trkpt lat="45.95999" lon="4.52762">
        <ele>322</ele>
        <time>2021-12-28T14:50:44Z</time>
      </trkpt>
      <trkpt lat="45.95983" lon="4.5277">
        <ele>324</ele>
        <time>2021-12-28T14:51:07Z</time>
      </trkpt>
      <trkpt lat="45.95977" lon="4.52779">
        <ele>326</ele>
        <time>2021-12-28T14:51:18Z</time>
      </trkpt>
      <trkpt lat="45.95976" lon="4.52794">
        <ele>327</ele>
        <time>2021-12-28T14:51:32Z</time>
      </trkpt>
      <trkpt lat="45.95982" lon="4.5282">
        <ele>330</ele>
        <time>2021-12-28T14:51:58Z</time>
      </trkpt>
      <trkpt lat="45.95979" lon="4.52831">
        <ele>331</ele>
        <time>2021-12-28T14:52:09Z</time>
      </trkpt>
      <trkpt lat="45.95964" lon="4.52857">
        <ele>335</ele>
        <time>2021-12-28T14:52:40Z</time>
      </trkpt>
      <trkpt lat="45.9595" lon="4.5289">
        <ele>339</ele>
        <time>2021-12-28T14:53:16Z</time>
      </trkpt>
      <trkpt lat="45.95925" lon="4.5292">
        <ele>343</ele>
        <time>2021-12-28T14:53:59Z</time>
      </trkpt>
      <trkpt lat="45.9592" lon="4.52929">
        <ele>344</ele>
        <time>2021-12-28T14:54:10Z</time>
      </trkpt>
      <trkpt lat="45.95914" lon="4.52948">
        <ele>345</ele>
        <time>2021-12-28T14:54:29Z</time>
      </trkpt>
      <trkpt lat="45.95898" lon="4.5301">
        <ele>347</ele>
        <time>2021-12-28T14:55:31Z</time>
      </trkpt>
      <trkpt lat="45.95886" lon="4.53045">
        <ele>348</ele>
        <time>2021-12-28T14:56:07Z</time>
      </trkpt>
      <trkpt lat="45.95872" lon="4.53069">
        <ele>348</ele>
        <time>2021-12-28T14:56:36Z</time>
      </trkpt>
      <trkpt lat="45.95866" lon="4.53074">
        <ele>348</ele>
        <time>2021-12-28T14:56:45Z</time>
      </trkpt>
      <trkpt lat="45.95865" lon="4.53081">
        <ele>348</ele>
        <time>2021-12-28T14:56:52Z</time>
      </trkpt>
      <trkpt lat="45.9585" lon="4.53115">
        <ele>348</ele>
        <time>2021-12-28T14:57:29Z</time>
      </trkpt>
      <trkpt lat="45.95838" lon="4.53147">
        <ele>347</ele>
        <time>2021-12-28T14:58:03Z</time>
      </trkpt>
      <trkpt lat="45.95818" lon="4.53197">
        <ele>346</ele>
        <time>2021-12-28T14:58:56Z</time>
      </trkpt>
      <trkpt lat="45.95789" lon="4.53307">
        <ele>347</ele>
        <time>2021-12-28T15:00:45Z</time>
      </trkpt>
      <trkpt lat="45.95784" lon="4.53324">
        <ele>348</ele>
        <time>2021-12-28T15:01:03Z</time>
      </trkpt>
      <trkpt lat="45.95768" lon="4.53357">
        <ele>347</ele>
        <time>2021-12-28T15:01:40Z</time>
      </trkpt>
      <trkpt lat="45.95776" lon="4.5336">
        <ele>347</ele>
        <time>2021-12-28T15:01:51Z</time>
      </trkpt>
      <trkpt lat="45.95768" lon="4.53357">
        <ele>347</ele>
        <time>2021-12-28T15:02:02Z</time>
      </trkpt>
      <trkpt lat="45.95748" lon="4.53382">
        <ele>345</ele>
        <time>2021-12-28T15:02:37Z</time>
      </trkpt>
      <trkpt lat="45.95741" lon="4.53387">
        <ele>345</ele>
        <time>2021-12-28T15:02:48Z</time>
      </trkpt>
      <trkpt lat="45.95737" lon="4.53459">
        <ele>340</ele>
        <time>2021-12-28T15:03:55Z</time>
      </trkpt>
      <trkpt lat="45.95723" lon="4.53572">
        <ele>329</ele>
        <time>2021-12-28T15:05:41Z</time>
      </trkpt>
      <trkpt lat="45.95716" lon="4.536">
        <ele>327</ele>
        <time>2021-12-28T15:06:09Z</time>
      </trkpt>
      <trkpt lat="45.95701" lon="4.53629">
        <ele>326</ele>
        <time>2021-12-28T15:06:42Z</time>
      </trkpt>
      <trkpt lat="45.95667" lon="4.53654">
        <ele>322</ele>
        <time>2021-12-28T15:07:33Z</time>
      </trkpt>
      <trkpt lat="45.95645" lon="4.53693">
        <ele>318</ele>
        <time>2021-12-28T15:08:20Z</time>
      </trkpt>
      <trkpt lat="45.9564" lon="4.53713">
        <ele>317</ele>
        <time>2021-12-28T15:08:40Z</time>
      </trkpt>
      <trkpt lat="45.95643" lon="4.53736">
        <ele>318</ele>
        <time>2021-12-28T15:09:01Z</time>
      </trkpt>
      <trkpt lat="45.9565" lon="4.53762">
        <ele>318</ele>
        <time>2021-12-28T15:09:27Z</time>
      </trkpt>
      <trkpt lat="45.95658" lon="4.53779">
        <ele>318</ele>
        <time>2021-12-28T15:09:46Z</time>
      </trkpt>
      <trkpt lat="45.95661" lon="4.53797">
        <ele>317</ele>
        <time>2021-12-28T15:10:03Z</time>
      </trkpt>
      <trkpt lat="45.95675" lon="4.53829">
        <ele>317</ele>
        <time>2021-12-28T15:10:39Z</time>
      </trkpt>
      <trkpt lat="45.95685" lon="4.53858">
        <ele>319</ele>
        <time>2021-12-28T15:11:09Z</time>
      </trkpt>
      <trkpt lat="45.95708" lon="4.53899">
        <ele>321</ele>
        <time>2021-12-28T15:11:57Z</time>
      </trkpt>
      <trkpt lat="45.95746" lon="4.53931">
        <ele>324</ele>
        <time>2021-12-28T15:12:56Z</time>
      </trkpt>
      <trkpt lat="45.95779" lon="4.53938">
        <ele>327</ele>
        <time>2021-12-28T15:13:41Z</time>
      </trkpt>
      <trkpt lat="45.95809" lon="4.53951">
        <ele>329</ele>
        <time>2021-12-28T15:14:23Z</time>
      </trkpt>
      <trkpt lat="45.95859" lon="4.54002">
        <ele>330</ele>
        <time>2021-12-28T15:15:44Z</time>
      </trkpt>
      <trkpt lat="45.95886" lon="4.54069">
        <ele>329</ele>
        <time>2021-12-28T15:16:56Z</time>
      </trkpt>
      <trkpt lat="45.95907" lon="4.54091">
        <ele>330</ele>
        <time>2021-12-28T15:17:31Z</time>
      </trkpt>
      <trkpt lat="45.95919" lon="4.54094">
        <ele>331</ele>
        <time>2021-12-28T15:17:47Z</time>
      </trkpt>
      <trkpt lat="45.95965" lon="4.54088">
        <ele>340</ele>
        <time>2021-12-28T15:18:49Z</time>
      </trkpt>
      <trkpt lat="45.95969" lon="4.5409">
        <ele>340</ele>
        <time>2021-12-28T15:18:54Z</time>
      </trkpt>
      <trkpt lat="45.95971" lon="4.54098">
        <ele>339</ele>
        <time>2021-12-28T15:19:02Z</time>
      </trkpt>
      <trkpt lat="45.95968" lon="4.54111">
        <ele>337</ele>
        <time>2021-12-28T15:19:15Z</time>
      </trkpt>
      <trkpt lat="45.95972" lon="4.54128">
        <ele>336</ele>
        <time>2021-12-28T15:19:32Z</time>
      </trkpt>
      <trkpt lat="45.96006" lon="4.54172">
        <ele>337</ele>
        <time>2021-12-28T15:20:33Z</time>
      </trkpt>
      <trkpt lat="45.96021" lon="4.54185">
        <ele>339</ele>
        <time>2021-12-28T15:20:56Z</time>
      </trkpt>
      <trkpt lat="45.96047" lon="4.54219">
        <ele>342</ele>
        <time>2021-12-28T15:21:43Z</time>
      </trkpt>
      <trkpt lat="45.96061" lon="4.54245">
        <ele>344</ele>
        <time>2021-12-28T15:22:13Z</time>
      </trkpt>
      <trkpt lat="45.96076" lon="4.54314">
        <ele>340</ele>
        <time>2021-12-28T15:23:20Z</time>
      </trkpt>
      <trkpt lat="45.96157" lon="4.54406">
        <ele>346</ele>
        <time>2021-12-28T15:25:38Z</time>
      </trkpt>
      <trkpt lat="45.96166" lon="4.54429">
        <ele>345</ele>
        <time>2021-12-28T15:26:03Z</time>
      </trkpt>
      <trkpt lat="45.96192" lon="4.54468">
        <ele>347</ele>
        <time>2021-12-28T15:26:53Z</time>
      </trkpt>
      <trkpt lat="45.96213" lon="4.54491">
        <ele>347</ele>
        <time>2021-12-28T15:27:28Z</time>
      </trkpt>
      <trkpt lat="45.96229" lon="4.54497">
        <ele>348</ele>
        <time>2021-12-28T15:27:50Z</time>
      </trkpt>
      <trkpt lat="45.96242" lon="4.54508">
        <ele>348</ele>
        <time>2021-12-28T15:28:10Z</time>
      </trkpt>
      <trkpt lat="45.96252" lon="4.54525">
        <ele>348</ele>
        <time>2021-12-28T15:28:31Z</time>
      </trkpt>
      <trkpt lat="45.96262" lon="4.5461">
        <ele>353</ele>
        <time>2021-12-28T15:29:51Z</time>
      </trkpt>
      <trkpt lat="45.96289" lon="4.54633">
        <ele>359</ele>
        <time>2021-12-28T15:30:33Z</time>
      </trkpt>
      <trkpt lat="45.96433" lon="4.54694">
        <ele>362</ele>
        <time>2021-12-28T15:33:53Z</time>
      </trkpt>
      <trkpt lat="45.96461" lon="4.54728">
        <ele>366</ele>
        <time>2021-12-28T15:34:42Z</time>
      </trkpt>
      <trkpt lat="45.96514" lon="4.54746">
        <ele>359</ele>
        <time>2021-12-28T15:35:55Z</time>
      </trkpt>
      <trkpt lat="45.96537" lon="4.54757">
        <ele>359</ele>
        <time>2021-12-28T15:36:27Z</time>
      </trkpt>
      <trkpt lat="45.96557" lon="4.54772">
        <ele>360</ele>
        <time>2021-12-28T15:36:57Z</time>
      </trkpt>
      <trkpt lat="45.96613" lon="4.54846">
        <ele>369</ele>
        <time>2021-12-28T15:38:39Z</time>
      </trkpt>
      <trkpt lat="45.96623" lon="4.54853">
        <ele>371</ele>
        <time>2021-12-28T15:38:53Z</time>
      </trkpt>
      <trkpt lat="45.96647" lon="4.54852">
        <ele>371</ele>
        <time>2021-12-28T15:39:25Z</time>
      </trkpt>
      <trkpt lat="45.96682" lon="4.54844">
        <ele>367</ele>
        <time>2021-12-28T15:40:13Z</time>
      </trkpt>
      <trkpt lat="45.96724" lon="4.54849">
        <ele>368</ele>
        <time>2021-12-28T15:41:09Z</time>
      </trkpt>
      <trkpt lat="45.96744" lon="4.54849">
        <ele>368</ele>
        <time>2021-12-28T15:41:36Z</time>
      </trkpt>
      <trkpt lat="45.96778" lon="4.54859">
        <ele>371</ele>
        <time>2021-12-28T15:42:22Z</time>
      </trkpt>
      <trkpt lat="45.96798" lon="4.5489">
        <ele>375</ele>
        <time>2021-12-28T15:43:01Z</time>
      </trkpt>
      <trkpt lat="45.96827" lon="4.54919">
        <ele>374</ele>
        <time>2021-12-28T15:43:48Z</time>
      </trkpt>
      <trkpt lat="45.96838" lon="4.54927">
        <ele>374</ele>
        <time>2021-12-28T15:44:05Z</time>
      </trkpt>
      <trkpt lat="45.9685" lon="4.54941">
        <ele>377</ele>
        <time>2021-12-28T15:44:25Z</time>
      </trkpt>
      <trkpt lat="45.96878" lon="4.5496">
        <ele>378</ele>
        <time>2021-12-28T15:45:07Z</time>
      </trkpt>
      <trkpt lat="45.96916" lon="4.54973">
        <ele>375</ele>
        <time>2021-12-28T15:45:59Z</time>
      </trkpt>
      <trkpt lat="45.96926" lon="4.54987">
        <ele>376</ele>
        <time>2021-12-28T15:46:17Z</time>
      </trkpt>
      <trkpt lat="45.96928" lon="4.54996">
        <ele>376</ele>
        <time>2021-12-28T15:46:26Z</time>
      </trkpt>
      <trkpt lat="45.9693" lon="4.55015">
        <ele>379</ele>
        <time>2021-12-28T15:46:44Z</time>
      </trkpt>
      <trkpt lat="45.96925" lon="4.5504">
        <ele>383</ele>
        <time>2021-12-28T15:47:08Z</time>
      </trkpt>
      <trkpt lat="45.96927" lon="4.55042">
        <ele>383</ele>
        <time>2021-12-28T15:47:11Z</time>
      </trkpt>
      <trkpt lat="45.96939" lon="4.55042">
        <ele>383</ele>
        <time>2021-12-28T15:47:27Z</time>
      </trkpt>
      <trkpt lat="45.96955" lon="4.55035">
        <ele>382</ele>
        <time>2021-12-28T15:47:50Z</time>
      </trkpt>
      <trkpt lat="45.96978" lon="4.5503">
        <ele>381</ele>
        <time>2021-12-28T15:48:21Z</time>
      </trkpt>
      <trkpt lat="45.97063" lon="4.55025">
        <ele>384</ele>
        <time>2021-12-28T15:50:14Z</time>
      </trkpt>
      <trkpt lat="45.97087" lon="4.55017">
        <ele>385</ele>
        <time>2021-12-28T15:50:47Z</time>
      </trkpt>
      <trkpt lat="45.971" lon="4.55016">
        <ele>386</ele>
        <time>2021-12-28T15:51:05Z</time>
      </trkpt>
      <trkpt lat="45.97116" lon="4.5502">
        <ele>388</ele>
        <time>2021-12-28T15:51:26Z</time>
      </trkpt>
      <trkpt lat="45.97131" lon="4.55031">
        <ele>390</ele>
        <time>2021-12-28T15:51:49Z</time>
      </trkpt>
      <trkpt lat="45.97146" lon="4.55034">
        <ele>391</ele>
        <time>2021-12-28T15:52:09Z</time>
      </trkpt>
      <trkpt lat="45.97152" lon="4.55033">
        <ele>391</ele>
        <time>2021-12-28T15:52:17Z</time>
      </trkpt>
      <trkpt lat="45.97175" lon="4.55052">
        <ele>392</ele>
        <time>2021-12-28T15:52:52Z</time>
      </trkpt>
      <trkpt lat="45.97195" lon="4.55067">
        <ele>394</ele>
        <time>2021-12-28T15:53:22Z</time>
      </trkpt>
      <trkpt lat="45.97235" lon="4.55086">
        <ele>398</ele>
        <time>2021-12-28T15:54:19Z</time>
      </trkpt>
      <trkpt lat="45.97248" lon="4.55097">
        <ele>399</ele>
        <time>2021-12-28T15:54:39Z</time>
      </trkpt>
      <trkpt lat="45.9727" lon="4.55121">
        <ele>405</ele>
        <time>2021-12-28T15:55:16Z</time>
      </trkpt>
      <trkpt lat="45.97286" lon="4.55153">
        <ele>405</ele>
        <time>2021-12-28T15:55:52Z</time>
      </trkpt>
      <trkpt lat="45.97334" lon="4.55227">
        <ele>405</ele>
        <time>2021-12-28T15:57:26Z</time>
      </trkpt>
      <trkpt lat="45.97362" lon="4.55251">
        <ele>408</ele>
        <time>2021-12-28T15:58:10Z</time>
      </trkpt>
      <trkpt lat="45.97389" lon="4.5527">
        <ele>411</ele>
        <time>2021-12-28T15:58:50Z</time>
      </trkpt>
      <trkpt lat="45.97401" lon="4.55285">
        <ele>410</ele>
        <time>2021-12-28T15:59:11Z</time>
      </trkpt>
      <trkpt lat="45.97413" lon="4.55296">
        <ele>409</ele>
        <time>2021-12-28T15:59:30Z</time>
      </trkpt>
      <trkpt lat="45.97431" lon="4.55337">
        <ele>408</ele>
        <time>2021-12-28T16:00:15Z</time>
      </trkpt>
      <trkpt lat="45.9743" lon="4.55341">
        <ele>408</ele>
        <time>2021-12-28T16:00:19Z</time>
      </trkpt>
      <trkpt lat="45.97437" lon="4.55355">
        <ele>411</ele>
        <time>2021-12-28T16:00:35Z</time>
      </trkpt>
      <trkpt lat="45.97475" lon="4.55382">
        <ele>417</ele>
        <time>2021-12-28T16:01:31Z</time>
      </trkpt>
      <trkpt lat="45.97482" lon="4.55392">
        <ele>417</ele>
        <time>2021-12-28T16:01:44Z</time>
      </trkpt>
      <trkpt lat="45.97496" lon="4.55414">
        <ele>416</ele>
        <time>2021-12-28T16:02:12Z</time>
      </trkpt>
      <trkpt lat="45.97497" lon="4.55423">
        <ele>417</ele>
        <time>2021-12-28T16:02:21Z</time>
      </trkpt>
      <trkpt lat="45.97511" lon="4.55446">
        <ele>422</ele>
        <time>2021-12-28T16:02:49Z</time>
      </trkpt>
      <trkpt lat="45.97531" lon="4.55461">
        <ele>425</ele>
        <time>2021-12-28T16:03:19Z</time>
      </trkpt>
      <trkpt lat="45.97564" lon="4.55444">
        <ele>423</ele>
        <time>2021-12-28T16:04:06Z</time>
      </trkpt>
      <trkpt lat="45.97569" lon="4.5543">
        <ele>421</ele>
        <time>2021-12-28T16:04:20Z</time>
      </trkpt>
      <trkpt lat="45.97566" lon="4.55424">
        <ele>420</ele>
        <time>2021-12-28T16:04:27Z</time>
      </trkpt>
      <trkpt lat="45.97572" lon="4.5542">
        <ele>420</ele>
        <time>2021-12-28T16:04:36Z</time>
      </trkpt>
      <trkpt lat="45.97588" lon="4.5542">
        <ele>421</ele>
        <time>2021-12-28T16:04:57Z</time>
      </trkpt>
      <trkpt lat="45.97612" lon="4.55413">
        <ele>424</ele>
        <time>2021-12-28T16:05:30Z</time>
      </trkpt>
      <trkpt lat="45.9762" lon="4.55406">
        <ele>426</ele>
        <time>2021-12-28T16:05:43Z</time>
      </trkpt>
      <trkpt lat="45.97648" lon="4.55396">
        <ele>429</ele>
        <time>2021-12-28T16:06:21Z</time>
      </trkpt>
      <trkpt lat="45.97658" lon="4.55382">
        <ele>430</ele>
        <time>2021-12-28T16:06:40Z</time>
      </trkpt>
      <trkpt lat="45.97681" lon="4.5537">
        <ele>431</ele>
        <time>2021-12-28T16:07:12Z</time>
      </trkpt>
      <trkpt lat="45.97708" lon="4.55361">
        <ele>431</ele>
        <time>2021-12-28T16:07:49Z</time>
      </trkpt>
      <trkpt lat="45.97726" lon="4.55358">
        <ele>432</ele>
        <time>2021-12-28T16:08:14Z</time>
      </trkpt>
      <trkpt lat="45.97739" lon="4.55367">
        <ele>432</ele>
        <time>2021-12-28T16:08:33Z</time>
      </trkpt>
      <trkpt lat="45.97754" lon="4.5537">
        <ele>432</ele>
        <time>2021-12-28T16:08:53Z</time>
      </trkpt>
      <trkpt lat="45.97777" lon="4.55382">
        <ele>436</ele>
        <time>2021-12-28T16:09:26Z</time>
      </trkpt>
      <trkpt lat="45.97815" lon="4.55419">
        <ele>437</ele>
        <time>2021-12-28T16:10:27Z</time>
      </trkpt>
      <trkpt lat="45.9782" lon="4.5543">
        <ele>439</ele>
        <time>2021-12-28T16:10:39Z</time>
      </trkpt>
      <trkpt lat="45.97843" lon="4.55445">
        <ele>442</ele>
        <time>2021-12-28T16:11:13Z</time>
      </trkpt>
      <trkpt lat="45.97848" lon="4.55451">
        <ele>443</ele>
        <time>2021-12-28T16:11:21Z</time>
      </trkpt>
      <trkpt lat="45.97893" lon="4.55455">
        <ele>446</ele>
        <time>2021-12-28T16:12:22Z</time>
      </trkpt>
      <trkpt lat="45.97927" lon="4.55447">
        <ele>447</ele>
        <time>2021-12-28T16:13:08Z</time>
      </trkpt>
      <trkpt lat="45.97948" lon="4.55437">
        <ele>446</ele>
        <time>2021-12-28T16:13:37Z</time>
      </trkpt>
      <trkpt lat="45.97948" lon="4.55434">
        <ele>446</ele>
        <time>2021-12-28T16:13:40Z</time>
      </trkpt>
      <trkpt lat="45.97953" lon="4.55429">
        <ele>445</ele>
        <time>2021-12-28T16:13:48Z</time>
      </trkpt>
      <trkpt lat="45.97959" lon="4.55427">
        <ele>445</ele>
        <time>2021-12-28T16:13:56Z</time>
      </trkpt>
      <trkpt lat="45.97975" lon="4.55431">
        <ele>446</ele>
        <time>2021-12-28T16:14:18Z</time>
      </trkpt>
      <trkpt lat="45.97984" lon="4.5542">
        <ele>444</ele>
        <time>2021-12-28T16:14:34Z</time>
      </trkpt>
      <trkpt lat="45.97995" lon="4.55418">
        <ele>443</ele>
        <time>2021-12-28T16:14:48Z</time>
      </trkpt>
      <trkpt lat="45.9801" lon="4.55412">
        <ele>445</ele>
        <time>2021-12-28T16:15:09Z</time>
      </trkpt>
      <trkpt lat="45.98029" lon="4.55408">
        <ele>447</ele>
        <time>2021-12-28T16:15:35Z</time>
      </trkpt>
      <trkpt lat="45.98054" lon="4.55394">
        <ele>451</ele>
        <time>2021-12-28T16:16:11Z</time>
      </trkpt>
      <trkpt lat="45.98076" lon="4.55391">
        <ele>453</ele>
        <time>2021-12-28T16:16:40Z</time>
      </trkpt>
      <trkpt lat="45.98104" lon="4.55382">
        <ele>456</ele>
        <time>2021-12-28T16:17:18Z</time>
      </trkpt>
      <trkpt lat="45.98168" lon="4.5533">
        <ele>461</ele>
        <time>2021-12-28T16:18:57Z</time>
      </trkpt>
      <trkpt lat="45.98187" lon="4.55306">
        <ele>468</ele>
        <time>2021-12-28T16:19:30Z</time>
      </trkpt>
      <trkpt lat="45.98214" lon="4.55276">
        <ele>470</ele>
        <time>2021-12-28T16:20:16Z</time>
      </trkpt>
      <trkpt lat="45.98243" lon="4.55258">
        <ele>467</ele>
        <time>2021-12-28T16:20:58Z</time>
      </trkpt>
      <trkpt lat="45.98257" lon="4.55244">
        <ele>467</ele>
        <time>2021-12-28T16:21:21Z</time>
      </trkpt>
      <trkpt lat="45.98264" lon="4.55228">
        <ele>471</ele>
        <time>2021-12-28T16:21:38Z</time>
      </trkpt>
      <trkpt lat="45.98278" lon="4.55211">
        <ele>474</ele>
        <time>2021-12-28T16:22:03Z</time>
      </trkpt>
      <trkpt lat="45.98295" lon="4.55194">
        <ele>474</ele>
        <time>2021-12-28T16:22:30Z</time>
      </trkpt>
      <trkpt lat="45.98319" lon="4.55163">
        <ele>472</ele>
        <time>2021-12-28T16:23:13Z</time>
      </trkpt>
      <trkpt lat="45.98355" lon="4.5514">
        <ele>474</ele>
        <time>2021-12-28T16:24:06Z</time>
      </trkpt>
      <trkpt lat="45.98385" lon="4.55133">
        <ele>476</ele>
        <time>2021-12-28T16:24:46Z</time>
      </trkpt>
      <trkpt lat="45.98414" lon="4.5513">
        <ele>477</ele>
        <time>2021-12-28T16:25:25Z</time>
      </trkpt>
      <trkpt lat="45.98483" lon="4.55141">
        <ele>484</ele>
        <time>2021-12-28T16:26:58Z</time>
      </trkpt>
      <trkpt lat="45.9851" lon="4.55156">
        <ele>485</ele>
        <time>2021-12-28T16:27:37Z</time>
      </trkpt>
      <trkpt lat="45.98537" lon="4.5518">
        <ele>487</ele>
        <time>2021-12-28T16:28:19Z</time>
      </trkpt>
      <trkpt lat="45.98602" lon="4.5521">
        <ele>493</ele>
        <time>2021-12-28T16:29:50Z</time>
      </trkpt>
      <trkpt lat="45.98625" lon="4.55208">
        <ele>496</ele>
        <time>2021-12-28T16:30:21Z</time>
      </trkpt>
      <trkpt lat="45.98655" lon="4.55192">
        <ele>499</ele>
        <time>2021-12-28T16:31:03Z</time>
      </trkpt>
      <trkpt lat="45.98674" lon="4.55177">
        <ele>501</ele>
        <time>2021-12-28T16:31:32Z</time>
      </trkpt>
      <trkpt lat="45.9868" lon="4.5519">
        <ele>503</ele>
        <time>2021-12-28T16:31:47Z</time>
      </trkpt>
      <trkpt lat="45.98678" lon="4.55194">
        <ele>502</ele>
        <time>2021-12-28T16:31:51Z</time>
      </trkpt>
      <trkpt lat="45.9868" lon="4.5519">
        <ele>503</ele>
        <time>2021-12-28T16:31:56Z</time>
      </trkpt>
      <trkpt lat="45.98674" lon="4.55177">
        <ele>501</ele>
        <time>2021-12-28T16:32:10Z</time>
      </trkpt>
      <trkpt lat="45.98711" lon="4.55146">
        <ele>508</ele>
        <time>2021-12-28T16:33:08Z</time>
      </trkpt>
      <trkpt lat="45.98734" lon="4.55125">
        <ele>512</ele>
        <time>2021-12-28T16:33:44Z</time>
      </trkpt>
      <trkpt lat="45.98788" lon="4.55097">
        <ele>514</ele>
        <time>2021-12-28T16:35:00Z</time>
      </trkpt>
      <trkpt lat="45.98843" lon="4.55079">
        <ele>514</ele>
        <time>2021-12-28T16:36:16Z</time>
      </trkpt>
      <trkpt lat="45.98876" lon="4.55065">
        <ele>519</ele>
        <time>2021-12-28T16:37:02Z</time>
      </trkpt>
      <trkpt lat="45.98892" lon="4.55056">
        <ele>521</ele>
        <time>2021-12-28T16:37:25Z</time>
      </trkpt>
      <trkpt lat="45.98902" lon="4.55039">
        <ele>524</ele>
        <time>2021-12-28T16:37:45Z</time>
      </trkpt>
      <trkpt lat="45.98755" lon="4.54963">
        <ele>548</ele>
        <time>2021-12-28T16:41:14Z</time>
      </trkpt>
      <trkpt lat="45.98691" lon="4.54769">
        <ele>584</ele>
        <time>2021-12-28T16:44:33Z</time>
      </trkpt>
      <trkpt lat="45.98582" lon="4.54711">
        <ele>612</ele>
        <time>2021-12-28T16:47:08Z</time>
      </trkpt>
      <trkpt lat="45.98554" lon="4.54734">
        <ele>605</ele>
        <time>2021-12-28T16:47:51Z</time>
      </trkpt>
      <trkpt lat="45.98511" lon="4.54752">
        <ele>600</ele>
        <time>2021-12-28T16:48:51Z</time>
      </trkpt>
      <trkpt lat="45.98477" lon="4.54747">
        <ele>595</ele>
        <time>2021-12-28T16:49:36Z</time>
      </trkpt>
      <trkpt lat="45.98438" lon="4.54696">
        <ele>598</ele>
        <time>2021-12-28T16:50:47Z</time>
      </trkpt>
      <trkpt lat="45.98404" lon="4.54658">
        <ele>598</ele>
        <time>2021-12-28T16:51:44Z</time>
      </trkpt>
      <trkpt lat="45.98361" lon="4.5456">
        <ele>611</ele>
        <time>2021-12-28T16:53:31Z</time>
      </trkpt>
      <trkpt lat="45.98341" lon="4.54539">
        <ele>610</ele>
        <time>2021-12-28T16:54:05Z</time>
      </trkpt>
      <trkpt lat="45.9831" lon="4.54517">
        <ele>611</ele>
        <time>2021-12-28T16:54:51Z</time>
      </trkpt>
      <trkpt lat="45.98268" lon="4.54513">
        <ele>608</ele>
        <time>2021-12-28T16:55:47Z</time>
      </trkpt>
      <trkpt lat="45.98249" lon="4.5452">
        <ele>604</ele>
        <time>2021-12-28T16:56:13Z</time>
      </trkpt>
      <trkpt lat="45.98218" lon="4.54582">
        <ele>595</ele>
        <time>2021-12-28T16:57:24Z</time>
      </trkpt>
      <trkpt lat="45.98194" lon="4.54606">
        <ele>595</ele>
        <time>2021-12-28T16:58:03Z</time>
      </trkpt>
      <trkpt lat="45.98164" lon="4.54632">
        <ele>595</ele>
        <time>2021-12-28T16:58:50Z</time>
      </trkpt>
      <trkpt lat="45.98118" lon="4.54627">
        <ele>593</ele>
        <time>2021-12-28T16:59:51Z</time>
      </trkpt>
      <trkpt lat="45.981" lon="4.54619">
        <ele>594</ele>
        <time>2021-12-28T17:00:16Z</time>
      </trkpt>
      <trkpt lat="45.98069" lon="4.54594">
        <ele>599</ele>
        <time>2021-12-28T17:01:04Z</time>
      </trkpt>
      <trkpt lat="45.98047" lon="4.54579">
        <ele>601</ele>
        <time>2021-12-28T17:01:36Z</time>
      </trkpt>
      <trkpt lat="45.9799" lon="4.54587">
        <ele>595</ele>
        <time>2021-12-28T17:02:53Z</time>
      </trkpt>
      <trkpt lat="45.97968" lon="4.54583">
        <ele>594</ele>
        <time>2021-12-28T17:03:22Z</time>
      </trkpt>
      <trkpt lat="45.97894" lon="4.54528">
        <ele>591</ele>
        <time>2021-12-28T17:05:13Z</time>
      </trkpt>
      <trkpt lat="45.97851" lon="4.54523">
        <ele>586</ele>
        <time>2021-12-28T17:06:11Z</time>
      </trkpt>
      <trkpt lat="45.97778" lon="4.54524">
        <ele>577</ele>
        <time>2021-12-28T17:07:48Z</time>
      </trkpt>
      <trkpt lat="45.97742" lon="4.54517">
        <ele>573</ele>
        <time>2021-12-28T17:08:37Z</time>
      </trkpt>
      <trkpt lat="45.97666" lon="4.54481">
        <ele>564</ele>
        <time>2021-12-28T17:10:24Z</time>
      </trkpt>
      <trkpt lat="45.97658" lon="4.54463">
        <ele>559</ele>
        <time>2021-12-28T17:10:43Z</time>
      </trkpt>
      <trkpt lat="45.97626" lon="4.5445">
        <ele>554</ele>
        <time>2021-12-28T17:11:28Z</time>
      </trkpt>
      <trkpt lat="45.9758" lon="4.54451">
        <ele>550</ele>
        <time>2021-12-28T17:12:29Z</time>
      </trkpt>
      <trkpt lat="45.97545" lon="4.54447">
        <ele>543</ele>
        <time>2021-12-28T17:13:16Z</time>
      </trkpt>
      <trkpt lat="45.97504" lon="4.54451">
        <ele>536</ele>
        <time>2021-12-28T17:14:11Z</time>
      </trkpt>
      <trkpt lat="45.9746" lon="4.54445">
        <ele>527</ele>
        <time>2021-12-28T17:15:10Z</time>
      </trkpt>
      <trkpt lat="45.97439" lon="4.5445">
        <ele>523</ele>
        <time>2021-12-28T17:15:38Z</time>
      </trkpt>
      <trkpt lat="45.97405" lon="4.54451">
        <ele>516</ele>
        <time>2021-12-28T17:16:24Z</time>
      </trkpt>
      <trkpt lat="45.97371" lon="4.54459">
        <ele>508</ele>
        <time>2021-12-28T17:17:10Z</time>
      </trkpt>
      <trkpt lat="45.97335" lon="4.54462">
        <ele>499</ele>
        <time>2021-12-28T17:17:58Z</time>
      </trkpt>
      <trkpt lat="45.97265" lon="4.54443">
        <ele>484</ele>
        <time>2021-12-28T17:19:33Z</time>
      </trkpt>
      <trkpt lat="45.97235" lon="4.5443">
        <ele>478</ele>
        <time>2021-12-28T17:20:15Z</time>
      </trkpt>
      <trkpt lat="45.97214" lon="4.54423">
        <ele>474</ele>
        <time>2021-12-28T17:20:43Z</time>
      </trkpt>
      <trkpt lat="45.97187" lon="4.54425">
        <ele>471</ele>
        <time>2021-12-28T17:21:19Z</time>
      </trkpt>
      <trkpt lat="45.97162" lon="4.5443">
        <ele>467</ele>
        <time>2021-12-28T17:21:53Z</time>
      </trkpt>
      <trkpt lat="45.97153" lon="4.54417">
        <ele>466</ele>
        <time>2021-12-28T17:22:10Z</time>
      </trkpt>
      <trkpt lat="45.97154" lon="4.54391">
        <ele>463</ele>
        <time>2021-12-28T17:22:34Z</time>
      </trkpt>
      <trkpt lat="45.97186" lon="4.54336">
        <ele>462</ele>
        <time>2021-12-28T17:23:41Z</time>
      </trkpt>
      <trkpt lat="45.97198" lon="4.54322">
        <ele>461</ele>
        <time>2021-12-28T17:24:01Z</time>
      </trkpt>
      <trkpt lat="45.97222" lon="4.54309">
        <ele>462</ele>
        <time>2021-12-28T17:24:36Z</time>
      </trkpt>
      <trkpt lat="45.9725" lon="4.54302">
        <ele>464</ele>
        <time>2021-12-28T17:25:14Z</time>
      </trkpt>
      <trkpt lat="45.97274" lon="4.54289">
        <ele>466</ele>
        <time>2021-12-28T17:25:48Z</time>
      </trkpt>
      <trkpt lat="45.973" lon="4.54253">
        <ele>464</ele>
        <time>2021-12-28T17:26:36Z</time>
      </trkpt>
      <trkpt lat="45.97308" lon="4.54231">
        <ele>462</ele>
        <time>2021-12-28T17:26:59Z</time>
      </trkpt>
      <trkpt lat="45.97307" lon="4.54227">
        <ele>461</ele>
        <time>2021-12-28T17:27:03Z</time>
      </trkpt>
      <trkpt lat="45.97309" lon="4.5421">
        <ele>458</ele>
        <time>2021-12-28T17:27:19Z</time>
      </trkpt>
      <trkpt lat="45.97347" lon="4.54102">
        <ele>452</ele>
        <time>2021-12-28T17:29:11Z</time>
      </trkpt>
      <trkpt lat="45.97354" lon="4.54055">
        <ele>448</ele>
        <time>2021-12-28T17:29:56Z</time>
      </trkpt>
      <trkpt lat="45.9737" lon="4.53995">
        <ele>447</ele>
        <time>2021-12-28T17:30:55Z</time>
      </trkpt>
      <trkpt lat="45.97375" lon="4.53961">
        <ele>451</ele>
        <time>2021-12-28T17:31:28Z</time>
      </trkpt>
      <trkpt lat="45.97365" lon="4.53949">
        <ele>452</ele>
        <time>2021-12-28T17:31:45Z</time>
      </trkpt>
      <trkpt lat="45.97358" lon="4.53954">
        <ele>451</ele>
        <time>2021-12-28T17:31:55Z</time>
      </trkpt>
      <trkpt lat="45.97332" lon="4.53964">
        <ele>447</ele>
        <time>2021-12-28T17:32:31Z</time>
      </trkpt>
      <trkpt lat="45.97316" lon="4.53976">
        <ele>443</ele>
        <time>2021-12-28T17:32:55Z</time>
      </trkpt>
      <trkpt lat="45.97278" lon="4.53977">
        <ele>440</ele>
        <time>2021-12-28T17:33:46Z</time>
      </trkpt>
      <trkpt lat="45.9725" lon="4.53987">
        <ele>436</ele>
        <time>2021-12-28T17:34:25Z</time>
      </trkpt>
      <trkpt lat="45.97244" lon="4.53991">
        <ele>435</ele>
        <time>2021-12-28T17:34:33Z</time>
      </trkpt>
      <trkpt lat="45.97225" lon="4.53995">
        <ele>432</ele>
        <time>2021-12-28T17:34:59Z</time>
      </trkpt>
      <trkpt lat="45.97188" lon="4.53991">
        <ele>428</ele>
        <time>2021-12-28T17:35:49Z</time>
      </trkpt>
      <trkpt lat="45.97169" lon="4.53997">
        <ele>426</ele>
        <time>2021-12-28T17:36:15Z</time>
      </trkpt>
      <trkpt lat="45.97134" lon="4.54002">
        <ele>421</ele>
        <time>2021-12-28T17:37:01Z</time>
      </trkpt>
      <trkpt lat="45.97122" lon="4.53997">
        <ele>419</ele>
        <time>2021-12-28T17:37:18Z</time>
      </trkpt>
      <trkpt lat="45.97067" lon="4.5394">
        <ele>418</ele>
        <time>2021-12-28T17:38:49Z</time>
      </trkpt>
      <trkpt lat="45.97053" lon="4.53924">
        <ele>417</ele>
        <time>2021-12-28T17:39:12Z</time>
      </trkpt>
      <trkpt lat="45.97039" lon="4.53902">
        <ele>414</ele>
        <time>2021-12-28T17:39:40Z</time>
      </trkpt>
      <trkpt lat="45.97033" lon="4.53888">
        <ele>413</ele>
        <time>2021-12-28T17:39:55Z</time>
      </trkpt>
      <trkpt lat="45.97015" lon="4.53833">
        <ele>410</ele>
        <time>2021-12-28T17:40:52Z</time>
      </trkpt>
      <trkpt lat="45.97005" lon="4.53794">
        <ele>405</ele>
        <time>2021-12-28T17:41:30Z</time>
      </trkpt>
      <trkpt lat="45.96987" lon="4.53786">
        <ele>402</ele>
        <time>2021-12-28T17:41:55Z</time>
      </trkpt>
      <trkpt lat="45.96986" lon="4.53779">
        <ele>402</ele>
        <time>2021-12-28T17:42:02Z</time>
      </trkpt>
      <trkpt lat="45.96993" lon="4.53765">
        <ele>401</ele>
        <time>2021-12-28T17:42:18Z</time>
      </trkpt>
      <trkpt lat="45.96997" lon="4.53754">
        <ele>401</ele>
        <time>2021-12-28T17:42:30Z</time>
      </trkpt>
      <trkpt lat="45.96996" lon="4.53743">
        <ele>401</ele>
        <time>2021-12-28T17:42:40Z</time>
      </trkpt>
      <trkpt lat="45.96992" lon="4.53731">
        <ele>402</ele>
        <time>2021-12-28T17:42:52Z</time>
      </trkpt>
      <trkpt lat="45.96986" lon="4.5372">
        <ele>403</ele>
        <time>2021-12-28T17:43:05Z</time>
      </trkpt>
      <trkpt lat="45.96966" lon="4.53696">
        <ele>404</ele>
        <time>2021-12-28T17:43:40Z</time>
      </trkpt>
      <trkpt lat="45.96948" lon="4.53679">
        <ele>403</ele>
        <time>2021-12-28T17:44:09Z</time>
      </trkpt>
      <trkpt lat="45.9693" lon="4.53643">
        <ele>407</ele>
        <time>2021-12-28T17:44:50Z</time>
      </trkpt>
      <trkpt lat="45.96921" lon="4.53612">
        <ele>411</ele>
        <time>2021-12-28T17:45:21Z</time>
      </trkpt>
      <trkpt lat="45.96918" lon="4.53597">
        <ele>413</ele>
        <time>2021-12-28T17:45:35Z</time>
      </trkpt>
      <trkpt lat="45.969" lon="4.53539">
        <ele>413</ele>
        <time>2021-12-28T17:46:34Z</time>
      </trkpt>
      <trkpt lat="45.96903" lon="4.53504">
        <ele>416</ele>
        <time>2021-12-28T17:47:07Z</time>
      </trkpt>
      <trkpt lat="45.96909" lon="4.53467">
        <ele>417</ele>
        <time>2021-12-28T17:47:42Z</time>
      </trkpt>
      <trkpt lat="45.96929" lon="4.53425">
        <ele>421</ele>
        <time>2021-12-28T17:48:30Z</time>
      </trkpt>
      <trkpt lat="45.96933" lon="4.53401">
        <ele>425</ele>
        <time>2021-12-28T17:48:52Z</time>
      </trkpt>
      <trkpt lat="45.9693" lon="4.53377">
        <ele>428</ele>
        <time>2021-12-28T17:49:15Z</time>
      </trkpt>
      <trkpt lat="45.96925" lon="4.53359">
        <ele>430</ele>
        <time>2021-12-28T17:49:33Z</time>
      </trkpt>
      <trkpt lat="45.96914" lon="4.53344">
        <ele>431</ele>
        <time>2021-12-28T17:49:53Z</time>
      </trkpt>
      <trkpt lat="45.96894" lon="4.5334">
        <ele>427</ele>
        <time>2021-12-28T17:50:20Z</time>
      </trkpt>
      <trkpt lat="45.96868" lon="4.53338">
        <ele>422</ele>
        <time>2021-12-28T17:50:55Z</time>
      </trkpt>
      <trkpt lat="45.96861" lon="4.53332">
        <ele>422</ele>
        <time>2021-12-28T17:51:06Z</time>
      </trkpt>
      <trkpt lat="45.96846" lon="4.53286">
        <ele>427</ele>
        <time>2021-12-28T17:51:53Z</time>
      </trkpt>
      <trkpt lat="45.96834" lon="4.53263">
        <ele>429</ele>
        <time>2021-12-28T17:52:20Z</time>
      </trkpt>
      <trkpt lat="45.96822" lon="4.53247">
        <ele>428</ele>
        <time>2021-12-28T17:52:41Z</time>
      </trkpt>
      <trkpt lat="45.96809" lon="4.53223">
        <ele>426</ele>
        <time>2021-12-28T17:53:10Z</time>
      </trkpt>
      <trkpt lat="45.96804" lon="4.532">
        <ele>427</ele>
        <time>2021-12-28T17:53:32Z</time>
      </trkpt>
      <trkpt lat="45.96804" lon="4.53182">
        <ele>429</ele>
        <time>2021-12-28T17:53:49Z</time>
      </trkpt>
      <trkpt lat="45.96813" lon="4.53152">
        <ele>432</ele>
        <time>2021-12-28T17:54:19Z</time>
      </trkpt>
      <trkpt lat="45.96834" lon="4.53094">
        <ele>434</ele>
        <time>2021-12-28T17:55:20Z</time>
      </trkpt>
      <trkpt lat="45.96868" lon="4.5301">
        <ele>431</ele>
        <time>2021-12-28T17:56:50Z</time>
      </trkpt>
      <trkpt lat="45.96889" lon="4.52975">
        <ele>433</ele>
        <time>2021-12-28T17:57:33Z</time>
      </trkpt>
      <trkpt lat="45.96918" lon="4.52941">
        <ele>437</ele>
        <time>2021-12-28T17:58:23Z</time>
      </trkpt>
      <trkpt lat="45.96907" lon="4.52874">
        <ele>431</ele>
        <time>2021-12-28T17:59:26Z</time>
      </trkpt>
      <trkpt lat="45.96903" lon="4.52833">
        <ele>428</ele>
        <time>2021-12-28T18:00:05Z</time>
      </trkpt>
      <trkpt lat="45.96851" lon="4.52812">
        <ele>427</ele>
        <time>2021-12-28T18:01:17Z</time>
      </trkpt>
      <trkpt lat="45.96854" lon="4.52813">
        <ele>427</ele>
        <time>2021-12-28T18:01:21Z</time>
      </trkpt>
      <trkpt lat="45.96853" lon="4.52798">
        <ele>426</ele>
        <time>2021-12-28T18:01:35Z</time>
      </trkpt>
      <trkpt lat="45.96823" lon="4.52722">
        <ele>425</ele>
        <time>2021-12-28T18:02:56Z</time>
      </trkpt>
      <trkpt lat="45.96792" lon="4.52679">
        <ele>423</ele>
        <time>2021-12-28T18:03:54Z</time>
      </trkpt>
      <trkpt lat="45.96782" lon="4.5267">
        <ele>423</ele>
        <time>2021-12-28T18:04:09Z</time>
      </trkpt>
      <trkpt lat="45.96759" lon="4.52657">
        <ele>424</ele>
        <time>2021-12-28T18:04:42Z</time>
      </trkpt>
      <trkpt lat="45.96735" lon="4.52632">
        <ele>422</ele>
        <time>2021-12-28T18:05:22Z</time>
      </trkpt>
      <trkpt lat="45.96686" lon="4.52552">
        <ele>420</ele>
        <time>2021-12-28T18:07:01Z</time>
      </trkpt>
      <trkpt lat="45.96631" lon="4.52475">
        <ele>418</ele>
        <time>2021-12-28T18:08:43Z</time>
      </trkpt>
      <trkpt lat="45.96582" lon="4.52423">
        <ele>415</ele>
        <time>2021-12-28T18:10:04Z</time>
      </trkpt>
      <trkpt lat="45.96563" lon="4.52409">
        <ele>412</ele>
        <time>2021-12-28T18:10:33Z</time>
      </trkpt>
      <trkpt lat="45.96555" lon="4.524">
        <ele>410</ele>
        <time>2021-12-28T18:10:46Z</time>
      </trkpt>
      <trkpt lat="45.96506" lon="4.52322">
        <ele>405</ele>
        <time>2021-12-28T18:12:24Z</time>
      </trkpt>
      <trkpt lat="45.96452" lon="4.52245">
        <ele>400</ele>
        <time>2021-12-28T18:14:05Z</time>
      </trkpt>
      <trkpt lat="45.96391" lon="4.52142">
        <ele>392</ele>
        <time>2021-12-28T18:16:11Z</time>
      </trkpt>
      <trkpt lat="45.96366" lon="4.52089">
        <ele>384</ele>
        <time>2021-12-28T18:17:10Z</time>
      </trkpt>
      <trkpt lat="45.96346" lon="4.52097">
        <ele>384</ele>
        <time>2021-12-28T18:17:38Z</time>
      </trkpt>
      <trkpt lat="45.9633" lon="4.52121">
        <ele>384</ele>
        <time>2021-12-28T18:18:09Z</time>
      </trkpt>
      <trkpt lat="45.96322" lon="4.52156">
        <ele>385</ele>
        <time>2021-12-28T18:18:43Z</time>
      </trkpt>
      <trkpt lat="45.96316" lon="4.52212">
        <ele>381</ele>
        <time>2021-12-28T18:19:36Z</time>
      </trkpt>
      <trkpt lat="45.96344" lon="4.52319">
        <ele>377</ele>
        <time>2021-12-28T18:21:22Z</time>
      </trkpt>
      <trkpt lat="45.96352" lon="4.52345">
        <ele>376</ele>
        <time>2021-12-28T18:21:48Z</time>
      </trkpt>
      <trkpt lat="45.96355" lon="4.52401">
        <ele>372</ele>
        <time>2021-12-28T18:22:40Z</time>
      </trkpt>
      <trkpt lat="45.96346" lon="4.52406">
        <ele>369</ele>
        <time>2021-12-28T18:22:53Z</time>
      </trkpt>
      <trkpt lat="45.96336" lon="4.52416">
        <ele>367</ele>
        <time>2021-12-28T18:23:09Z</time>
      </trkpt>
      <trkpt lat="45.96327" lon="4.52432">
        <ele>365</ele>
        <time>2021-12-28T18:23:28Z</time>
      </trkpt>
      <trkpt lat="45.96322" lon="4.52451">
        <ele>363</ele>
        <time>2021-12-28T18:23:47Z</time>
      </trkpt>
      <trkpt lat="45.96304" lon="4.52446">
        <ele>360</ele>
        <time>2021-12-28T18:24:12Z</time>
      </trkpt>
      <trkpt lat="45.96269" lon="4.52449">
        <ele>354</ele>
        <time>2021-12-28T18:24:58Z</time>
      </trkpt>
      <trkpt lat="45.96268" lon="4.52461">
        <ele>353</ele>
        <time>2021-12-28T18:25:10Z</time>
      </trkpt>
      <trkpt lat="45.96231" lon="4.52462">
        <ele>347</ele>
        <time>2021-12-28T18:25:59Z</time>
      </trkpt>
      <trkpt lat="45.96212" lon="4.52458">
        <ele>345</ele>
        <time>2021-12-28T18:26:25Z</time>
      </trkpt>
      <trkpt lat="45.96055" lon="4.52503">
        <ele>324</ele>
        <time>2021-12-28T18:29:58Z</time>
      </trkpt>
      <trkpt lat="45.9602" lon="4.52493">
        <ele>319</ele>
        <time>2021-12-28T18:30:46Z</time>
      </trkpt>
      <trkpt lat="45.96055" lon="4.52503">
        <ele>324</ele>
        <time>2021-12-28T18:31:34Z</time>
      </trkpt>
      <trkpt lat="45.9607" lon="4.52498">
        <ele>325</ele>
        <time>2021-12-28T18:31:54Z</time>
      </trkpt>
      <trkpt lat="45.96048" lon="4.52313">
        <ele>314</ele>
        <time>2021-12-28T18:34:48Z</time>
      </trkpt>
      <trkpt lat="45.96036" lon="4.52194">
        <ele>311</ele>
        <time>2021-12-28T18:36:40Z</time>
      </trkpt>
      <trkpt lat="45.96028" lon="4.52133">
        <ele>311</ele>
        <time>2021-12-28T18:37:37Z</time>
      </trkpt>
      <trkpt lat="45.96029" lon="4.52093">
        <ele>312</ele>
        <time>2021-12-28T18:38:14Z</time>
      </trkpt>
      <trkpt lat="45.96035" lon="4.52057">
        <ele>313</ele>
        <time>2021-12-28T18:38:49Z</time>
      </trkpt>
      <trkpt lat="45.96042" lon="4.5203">
        <ele>314</ele>
        <time>2021-12-28T18:39:16Z</time>
      </trkpt>
      <trkpt lat="45.96051" lon="4.52016">
        <ele>316</ele>
        <time>2021-12-28T18:39:33Z</time>
      </trkpt>
      <trkpt lat="45.96044" lon="4.51986">
        <ele>313</ele>
        <time>2021-12-28T18:40:03Z</time>
      </trkpt>
      <trkpt lat="45.96044" lon="4.51958">
        <ele>311</ele>
        <time>2021-12-28T18:40:29Z</time>
      </trkpt>
      <trkpt lat="45.9606" lon="4.51838">
        <ele>302</ele>
        <time>2021-12-28T18:42:22Z</time>
      </trkpt>
      <trkpt lat="45.96099" lon="4.5177">
        <ele>299</ele>
        <time>2021-12-28T18:43:44Z</time>
      </trkpt>
      <trkpt lat="45.9612" lon="4.51714">
        <ele>296</ele>
        <time>2021-12-28T18:44:43Z</time>
      </trkpt>
      <trkpt lat="45.96123" lon="4.51683">
        <ele>293</ele>
        <time>2021-12-28T18:45:12Z</time>
      </trkpt>
      <trkpt lat="45.96121" lon="4.51666">
        <ele>291</ele>
        <time>2021-12-28T18:45:28Z</time>
      </trkpt>
      <trkpt lat="45.96112" lon="4.51679">
        <ele>292</ele>
        <time>2021-12-28T18:45:45Z</time>
      </trkpt>
      <trkpt lat="45.96036" lon="4.5174">
        <ele>291</ele>
        <time>2021-12-28T18:47:41Z</time>
      </trkpt>
      <trkpt lat="45.95972" lon="4.51802">
        <ele>291</ele>
        <time>2021-12-28T18:49:24Z</time>
      </trkpt>
      <trkpt lat="45.95915" lon="4.51872">
        <ele>288</ele>
        <time>2021-12-28T18:51:04Z</time>
      </trkpt>
      <trkpt lat="45.95876" lon="4.5193">
        <ele>287</ele>
        <time>2021-12-28T18:52:19Z</time>
      </trkpt>
    </trkseg>
  </trk>
</gpx>